Time;durP1;ratioP1;P1;durP2;ratioP2;P2;SDS_P1;SDS_P2;PMS_P1;PMS_P2;Temp;Humidity;BMP_temperature;BMP_pressure;BME280_temperature;BME280_humidity;BME280_pressure;Samples;Min_cycle;Max_cycle;Signal;HPM_P1;HPM_P2
2021/09/19 00:00:40;;;;;;;1.95;0.98;;;;;;;;;;5048064;28;20398;-81
2021/09/19 00:03:07;;;;;;;3.53;0.90;;;;;;;;;;5064329;28;20083;-81
2021/09/19 00:05:34;;;;;;;1.05;0.90;;;;;;;;;;5032227;28;20533;-81
2021/09/19 00:08:01;;;;;;;0.90;0.80;;;;;;;;;;5016089;28;20053;-81
2021/09/19 00:10:28;;;;;;;0.90;0.90;;;;;;;;;;5027926;28;20050;-81
2021/09/19 00:12:54;;;;;;;0.90;0.90;;;;;;;;;;5031906;28;20103;-81
2021/09/19 00:15:21;;;;;;;0.90;0.90;;;;;;;;;;5047485;28;20073;-81
2021/09/19 00:17:48;;;;;;;0.90;0.90;;;;;;;;;;5047041;28;20121;-81
2021/09/19 00:20:15;;;;;;;0.90;0.90;;;;;;;;;;5032626;28;20038;-81
2021/09/19 00:22:42;;;;;;;0.90;0.90;;;;;;;;;;5031259;28;20087;-81
2021/09/19 00:25:10;;;;;;;3.47;1.05;;;;;;;;;;5029003;28;20108;-81
2021/09/19 00:27:37;;;;;;;0.80;0.80;;;;;;;;;;5029890;28;20041;-81
2021/09/19 00:30:05;;;;;;;0.80;0.80;;;;;;;;;;5029626;28;20607;-81
2021/09/19 00:32:32;;;;;;;1.77;0.90;;;;;;;;;;5032368;28;20068;-81
2021/09/19 00:35:01;;;;;;;1.05;0.90;;;;;;;;;;5032911;28;20104;-81
2021/09/19 00:37:28;;;;;;;1.30;0.90;;;;;;;;;;5030991;28;20064;-81
2021/09/19 00:39:55;;;;;;;0.93;0.93;;;;;;;;;;5031808;28;20597;-81
2021/09/19 00:42:22;;;;;;;2.15;1.67;;;;;;;;;;5029892;28;20128;-81
2021/09/19 00:45:03;;;;;;;0.90;0.90;;;;;;;;;;5030530;28;20060;-81
2021/09/19 00:47:30;;;;;;;0.88;0.88;;;;;;;;;;5032233;28;20049;-81
2021/09/19 00:49:56;;;;;;;1.02;1.02;;;;;;;;;;5031441;28;20064;-81
2021/09/19 00:52:24;;;;;;;1.00;0.90;;;;;;;;;;5015118;28;20045;-81
2021/09/19 00:54:51;;;;;;;0.90;0.90;;;;;;;;;;5046200;28;20044;-81
2021/09/19 00:57:18;;;;;;;1.67;1.42;;;;;;;;;;5031859;28;20064;-81
2021/09/19 00:59:49;;;;;;;0.80;0.80;;;;;;;;;;5061939;28;20149;-81
2021/09/19 01:02:17;;;;;;;1.02;0.90;;;;;;;;;;5028691;28;20163;-80
2021/09/19 01:04:44;;;;;;;1.00;1.00;;;;;;;;;;5045575;28;20039;-81
2021/09/19 01:07:11;;;;;;;0.90;0.90;;;;;;;;;;5056297;28;20046;-81
2021/09/19 01:09:39;;;;;;;1.10;1.00;;;;;;;;;;5028845;28;20477;-81
2021/09/19 01:12:07;;;;;;;1.00;1.00;;;;;;;;;;5028144;28;20626;-80
2021/09/19 01:14:36;;;;;;;0.90;0.90;;;;;;;;;;5029191;28;20045;-80
2021/09/19 01:17:03;;;;;;;1.60;0.90;;;;;;;;;;5045638;28;20061;-80
2021/09/19 01:19:32;;;;;;;1.00;0.90;;;;;;;;;;5030177;28;20038;-80
2021/09/19 01:21:59;;;;;;;4.00;1.00;;;;;;;;;;5029306;28;20290;-80
2021/09/19 01:24:27;;;;;;;1.10;1.00;;;;;;;;;;5024348;28;20075;-80
2021/09/19 01:26:54;;;;;;;1.63;0.93;;;;;;;;;;5028422;28;20073;-80
2021/09/19 01:29:21;;;;;;;1.10;1.00;;;;;;;;;;5062994;28;20046;-80
2021/09/19 01:31:48;;;;;;;0.95;0.95;;;;;;;;;;5063001;28;20454;-80
2021/09/19 01:34:15;;;;;;;1.00;1.00;;;;;;;;;;5062843;28;20143;-80
2021/09/19 01:36:42;;;;;;;0.90;0.90;;;;;;;;;;5027834;28;20045;-80
2021/09/19 01:39:09;;;;;;;0.93;0.80;;;;;;;;;;5028991;28;20112;-80
2021/09/19 01:41:36;;;;;;;1.95;1.10;;;;;;;;;;5031085;28;20470;-80
2021/09/19 01:44:06;;;;;;;2.63;1.00;;;;;;;;;;5029496;28;20470;-80
2021/09/19 01:46:34;;;;;;;1.00;1.00;;;;;;;;;;5044091;28;20474;-80
2021/09/19 01:49:01;;;;;;;1.13;0.93;;;;;;;;;;5021554;28;20051;-80
2021/09/19 01:51:28;;;;;;;0.90;0.90;;;;;;;;;;5029458;28;20044;-80
2021/09/19 01:53:54;;;;;;;1.00;1.00;;;;;;;;;;5028525;28;20447;-80
2021/09/19 01:56:21;;;;;;;1.17;0.90;;;;;;;;;;5061822;28;20559;-80
2021/09/19 01:58:50;;;;;;;1.55;0.90;;;;;;;;;;5029251;28;20057;-80
2021/09/19 02:01:21;;;;;;;2.92;0.90;;;;;;;;;;5021207;28;20069;-80
2021/09/19 02:03:49;;;;;;;1.33;0.90;;;;;;;;;;5055260;28;20125;-80
2021/09/19 02:06:16;;;;;;;1.83;1.00;;;;;;;;;;5030981;28;20618;-80
2021/09/19 02:08:43;;;;;;;1.52;0.90;;;;;;;;;;5030079;28;20036;-80
2021/09/19 02:11:11;;;;;;;1.33;1.00;;;;;;;;;;5028991;28;20056;-80
2021/09/19 02:13:39;;;;;;;3.63;2.10;;;;;;;;;;5014454;28;20509;-80
2021/09/19 02:16:06;;;;;;;0.90;0.90;;;;;;;;;;5030523;28;20092;-80
2021/09/19 02:18:33;;;;;;;1.48;0.90;;;;;;;;;;5028640;28;20509;-80
2021/09/19 02:21:00;;;;;;;0.90;0.90;;;;;;;;;;5030700;28;20073;-80
2021/09/19 02:23:28;;;;;;;0.95;0.95;;;;;;;;;;5044301;28;20041;-81
2021/09/19 02:25:54;;;;;;;1.02;0.93;;;;;;;;;;5029017;28;20058;-81
2021/09/19 02:28:21;;;;;;;1.60;1.10;;;;;;;;;;5060893;28;20041;-81
2021/09/19 02:30:49;;;;;;;1.33;1.00;;;;;;;;;;5030943;28;20038;-81
2021/09/19 02:33:16;;;;;;;1.45;1.00;;;;;;;;;;5029770;28;20476;-81
2021/09/19 02:35:43;;;;;;;1.20;1.02;;;;;;;;;;5031525;28;20107;-81
2021/09/19 02:38:10;;;;;;;1.58;0.90;;;;;;;;;;5031852;28;20057;-81
2021/09/19 02:40:37;;;;;;;1.27;1.05;;;;;;;;;;5032949;28;20033;-81
2021/09/19 02:43:03;;;;;;;1.00;1.00;;;;;;;;;;5033190;28;20069;-81
2021/09/19 02:45:30;;;;;;;0.90;0.90;;;;;;;;;;5034564;28;20120;-81
2021/09/19 02:47:57;;;;;;;0.90;0.90;;;;;;;;;;5048262;28;20065;-81
2021/09/19 02:50:25;;;;;;;2.67;1.00;;;;;;;;;;5033506;28;20068;-81
2021/09/19 02:52:51;;;;;;;1.00;1.00;;;;;;;;;;5033105;28;20517;-81
2021/09/19 02:55:19;;;;;;;1.45;0.90;;;;;;;;;;5033177;28;20053;-80
2021/09/19 02:57:46;;;;;;;2.08;1.00;;;;;;;;;;5033195;28;20052;-80
2021/09/19 03:00:17;;;;;;;1.00;1.00;;;;;;;;;;5064571;28;20064;-80
2021/09/19 03:02:44;;;;;;;0.90;0.90;;;;;;;;;;5033561;28;20041;-80
2021/09/19 03:05:11;;;;;;;1.20;1.10;;;;;;;;;;5022776;28;20490;-80
2021/09/19 03:07:38;;;;;;;4.00;1.00;;;;;;;;;;5032262;28;20103;-80
2021/09/19 03:10:06;;;;;;;2.45;1.10;;;;;;;;;;5032553;28;20045;-80
2021/09/19 03:12:32;;;;;;;1.40;0.90;;;;;;;;;;5033528;28;20601;-80
2021/09/19 03:14:59;;;;;;;1.73;1.00;;;;;;;;;;5032452;28;20088;-80
2021/09/19 03:17:26;;;;;;;0.90;0.90;;;;;;;;;;5033504;28;20471;-80
2021/09/19 03:19:52;;;;;;;0.95;0.95;;;;;;;;;;5030036;28;20049;-80
2021/09/19 03:22:19;;;;;;;1.10;1.10;;;;;;;;;;5048876;28;20136;-80
2021/09/19 03:24:46;;;;;;;1.00;1.00;;;;;;;;;;5033755;28;20093;-80
2021/09/19 03:27:13;;;;;;;1.85;1.00;;;;;;;;;;5032247;28;20124;-81
2021/09/19 03:29:40;;;;;;;1.20;1.10;;;;;;;;;;5029305;28;20045;-81
2021/09/19 03:32:07;;;;;;;1.30;1.20;;;;;;;;;;5028477;28;20108;-80
2021/09/19 03:34:34;;;;;;;3.05;1.10;;;;;;;;;;5024542;28;20149;-80
2021/09/19 03:37:01;;;;;;;0.90;0.90;;;;;;;;;;5032324;28;20422;-81
2021/09/19 03:39:28;;;;;;;2.90;1.00;;;;;;;;;;5032553;28;20487;-81
2021/09/19 03:41:55;;;;;;;0.80;0.80;;;;;;;;;;5027548;28;20100;-81
2021/09/19 03:44:21;;;;;;;5.10;1.48;;;;;;;;;;5010725;28;20125;-81
2021/09/19 03:46:48;;;;;;;1.60;1.00;;;;;;;;;;5050572;28;20491;-81
2021/09/19 03:49:15;;;;;;;1.10;0.90;;;;;;;;;;5021216;28;20068;-81
2021/09/19 03:51:41;;;;;;;2.80;0.90;;;;;;;;;;5031350;28;20029;-80
2021/09/19 03:54:08;;;;;;;1.08;1.00;;;;;;;;;;5031614;28;20046;-80
2021/09/19 03:56:35;;;;;;;1.52;1.10;;;;;;;;;;5027643;28;20494;-80
2021/09/19 03:59:02;;;;;;;1.17;1.08;;;;;;;;;;5031975;28;20502;-80
2021/09/19 04:01:28;;;;;;;3.50;1.13;;;;;;;;;;5019560;28;20049;-80
2021/09/19 04:03:55;;;;;;;1.70;1.10;;;;;;;;;;5026520;28;20046;-80
2021/09/19 04:06:22;;;;;;;1.30;1.20;;;;;;;;;;5027760;28;20435;-80
2021/09/19 04:08:49;;;;;;;3.22;1.20;;;;;;;;;;5032482;28;20041;-80
2021/09/19 04:11:16;;;;;;;1.45;1.20;;;;;;;;;;5015239;28;20144;-80
2021/09/19 04:13:42;;;;;;;1.55;1.00;;;;;;;;;;5031241;28;20056;-80
2021/09/19 04:16:09;;;;;;;1.20;1.10;;;;;;;;;;5032016;28;20034;-80
2021/09/19 04:18:36;;;;;;;1.00;1.00;;;;;;;;;;5030762;28;20080;-80
2021/09/19 04:21:03;;;;;;;1.08;1.08;;;;;;;;;;5032503;28;20072;-80
2021/09/19 04:23:30;;;;;;;3.17;1.02;;;;;;;;;;5029688;28;20092;-80
2021/09/19 04:25:56;;;;;;;3.33;1.05;;;;;;;;;;5047940;28;20092;-80
2021/09/19 04:28:23;;;;;;;4.80;1.80;;;;;;;;;;5060902;28;20087;-80
2021/09/19 04:30:50;;;;;;;1.25;1.10;;;;;;;;;;5045266;28;20065;-80
2021/09/19 04:33:18;;;;;;;2.67;1.10;;;;;;;;;;5032248;28;20045;-80
2021/09/19 04:35:44;;;;;;;1.20;1.20;;;;;;;;;;5061733;28;20409;-80
2021/09/19 04:38:13;;;;;;;1.58;1.15;;;;;;;;;;5015130;28;20512;-80
2021/09/19 04:40:40;;;;;;;1.65;1.00;;;;;;;;;;5030950;28;20115;-80
2021/09/19 04:43:11;;;;;;;2.70;1.30;;;;;;;;;;5026790;28;20076;-80
2021/09/19 04:45:41;;;;;;;2.35;1.10;;;;;;;;;;5031103;28;20042;-80
2021/09/19 04:48:08;;;;;;;1.98;1.45;;;;;;;;;;5030156;28;20038;-80
2021/09/19 04:50:35;;;;;;;1.00;1.00;;;;;;;;;;5016442;28;20101;-80
2021/09/19 04:53:01;;;;;;;1.00;1.00;;;;;;;;;;5044702;28;20094;-80
2021/09/19 04:55:28;;;;;;;2.78;1.10;;;;;;;;;;5029565;28;20127;-81
2021/09/19 04:57:55;;;;;;;1.73;1.08;;;;;;;;;;5026693;28;20034;-81
2021/09/19 05:00:21;;;;;;;4.60;1.42;;;;;;;;;;5031006;28;20107;-80
2021/09/19 05:02:48;;;;;;;2.83;1.30;;;;;;;;;;5030449;28;20083;-80
2021/09/19 05:05:15;;;;;;;1.52;1.30;;;;;;;;;;5030431;28;20037;-80
2021/09/19 05:07:42;;;;;;;2.22;1.60;;;;;;;;;;5030046;28;20489;-80
2021/09/19 05:10:09;;;;;;;1.42;1.38;;;;;;;;;;5014732;28;20049;-80
2021/09/19 05:12:36;;;;;;;1.63;1.20;;;;;;;;;;5030529;28;20132;-80
2021/09/19 05:15:03;;;;;;;4.00;1.20;;;;;;;;;;5014319;28;20140;-80
2021/09/19 05:17:30;;;;;;;1.48;1.02;;;;;;;;;;5030534;28;20103;-80
2021/09/19 05:19:57;;;;;;;3.15;1.70;;;;;;;;;;5029173;28;20652;-80
2021/09/19 05:22:24;;;;;;;1.38;1.38;;;;;;;;;;5031993;28;20049;-80
2021/09/19 05:24:50;;;;;;;2.15;1.40;;;;;;;;;;5030742;28;20091;-80
2021/09/19 05:27:17;;;;;;;5.78;2.25;;;;;;;;;;5028965;28;20042;-80
2021/09/19 05:29:44;;;;;;;2.53;2.40;;;;;;;;;;5030287;28;20065;-80
2021/09/19 05:32:11;;;;;;;2.83;2.55;;;;;;;;;;5027696;28;20037;-80
2021/09/19 05:34:37;;;;;;;2.15;2.15;;;;;;;;;;5031725;28;20099;-80
2021/09/19 05:37:06;;;;;;;2.33;2.22;;;;;;;;;;5058467;28;20074;-80
2021/09/19 05:39:33;;;;;;;3.42;2.40;;;;;;;;;;5062075;28;20034;-80
2021/09/19 05:42:00;;;;;;;2.30;2.20;;;;;;;;;;5026539;28;20053;-80
2021/09/19 05:44:27;;;;;;;3.55;3.35;;;;;;;;;;5052772;28;20093;-80
2021/09/19 05:46:54;;;;;;;4.88;2.38;;;;;;;;;;5031164;28;20477;-80
2021/09/19 05:49:21;;;;;;;2.80;2.58;;;;;;;;;;5030576;28;20049;-80
2021/09/19 05:51:48;;;;;;;2.30;2.10;;;;;;;;;;5029661;28;20037;-80
2021/09/19 05:54:15;;;;;;;3.92;2.50;;;;;;;;;;5031559;28;20140;-80
2021/09/19 05:56:42;;;;;;;2.75;2.10;;;;;;;;;;5060394;28;20041;-80
2021/09/19 05:59:09;;;;;;;19.10;3.00;;;;;;;;;;5028100;28;20049;-80
2021/09/19 06:01:35;;;;;;;2.10;2.00;;;;;;;;;;5061993;28;20041;-80
2021/09/19 06:04:02;;;;;;;2.05;1.95;;;;;;;;;;5029929;28;20277;-80
2021/09/19 06:06:29;;;;;;;1.40;1.38;;;;;;;;;;5018287;28;20077;-80
2021/09/19 06:08:56;;;;;;;3.38;2.35;;;;;;;;;;5031812;28;20386;-80
2021/09/19 06:11:23;;;;;;;1.98;1.88;;;;;;;;;;5068186;28;20090;-80
2021/09/19 06:13:49;;;;;;;2.25;2.15;;;;;;;;;;5033493;28;20064;-80
2021/09/19 06:16:16;;;;;;;1.73;1.63;;;;;;;;;;5035774;28;20037;-80
2021/09/19 06:18:43;;;;;;;1.75;1.65;;;;;;;;;;5036362;28;20104;-77
2021/09/19 06:21:10;;;;;;;1.98;1.90;;;;;;;;;;5032504;28;20485;-77
2021/09/19 06:23:37;;;;;;;2.42;2.33;;;;;;;;;;5018076;28;20033;-77
2021/09/19 06:26:03;;;;;;;2.05;1.95;;;;;;;;;;5050372;28;20041;-77
2021/09/19 06:28:30;;;;;;;3.08;2.10;;;;;;;;;;5035027;28;20060;-77
2021/09/19 06:30:58;;;;;;;3.08;2.38;;;;;;;;;;5029616;28;20042;-77
2021/09/19 06:33:26;;;;;;;2.75;1.60;;;;;;;;;;5034882;28;20037;-77
2021/09/19 06:35:53;;;;;;;1.98;1.67;;;;;;;;;;5032545;28;20046;-77
2021/09/19 06:38:20;;;;;;;2.13;2.00;;;;;;;;;;5034247;28;20083;-77
2021/09/19 06:40:47;;;;;;;1.83;1.73;;;;;;;;;;5033637;28;20440;-77
2021/09/19 06:43:13;;;;;;;1.85;1.80;;;;;;;;;;5035399;28;20046;-77
2021/09/19 06:45:40;;;;;;;1.90;1.80;;;;;;;;;;5033766;28;20041;-77
2021/09/19 06:48:07;;;;;;;1.60;1.50;;;;;;;;;;5031044;28;20045;-77
2021/09/19 06:50:34;;;;;;;2.00;1.40;;;;;;;;;;5033360;28;20102;-77
2021/09/19 06:53:01;;;;;;;2.38;1.20;;;;;;;;;;5033573;28;20041;-77
2021/09/19 06:55:28;;;;;;;1.67;1.63;;;;;;;;;;5033891;28;20060;-77
2021/09/19 06:57:55;;;;;;;1.48;1.48;;;;;;;;;;5033245;28;20045;-77
2021/09/19 07:00:22;;;;;;;1.77;1.63;;;;;;;;;;5034825;28;20075;-77
2021/09/19 07:02:49;;;;;;;1.20;1.20;;;;;;;;;;5033402;28;20034;-77
2021/09/19 07:05:16;;;;;;;1.52;1.42;;;;;;;;;;5033711;28;20043;-77
2021/09/19 07:07:43;;;;;;;1.90;1.90;;;;;;;;;;5049329;28;20136;-77
2021/09/19 07:10:10;;;;;;;1.45;1.35;;;;;;;;;;5032643;28;20041;-76
2021/09/19 07:12:37;;;;;;;1.60;1.30;;;;;;;;;;5034721;28;20033;-76
2021/09/19 07:15:06;;;;;;;1.20;1.05;;;;;;;;;;5034514;28;20501;-76
2021/09/19 07:17:33;;;;;;;1.90;1.42;;;;;;;;;;5034194;28;20128;-76
2021/09/19 07:20:00;;;;;;;1.63;1.52;;;;;;;;;;5031319;28;20095;-76
2021/09/19 07:22:27;;;;;;;1.38;1.10;;;;;;;;;;5031794;28;20552;-76
2021/09/19 07:24:54;;;;;;;1.10;1.08;;;;;;;;;;5030514;28;20124;-76
2021/09/19 07:27:21;;;;;;;1.15;1.15;;;;;;;;;;5033266;28;20383;-76
2021/09/19 07:29:48;;;;;;;1.15;1.10;;;;;;;;;;5058296;28;20132;-76
2021/09/19 07:32:15;;;;;;;1.15;1.15;;;;;;;;;;5031125;28;20456;-76
2021/09/19 07:34:42;;;;;;;1.70;1.60;;;;;;;;;;5032613;28;20080;-76
2021/09/19 07:37:08;;;;;;;1.20;1.20;;;;;;;;;;5030621;28;20104;-76
2021/09/19 07:39:36;;;;;;;1.00;1.00;;;;;;;;;;5063857;28;20038;-76
2021/09/19 07:42:03;;;;;;;1.15;1.15;;;;;;;;;;5027832;28;20053;-76
2021/09/19 07:44:30;;;;;;;1.10;1.10;;;;;;;;;;5030444;28;20124;-76
2021/09/19 07:46:56;;;;;;;1.10;1.10;;;;;;;;;;5031527;28;20654;-76
2021/09/19 07:49:23;;;;;;;1.00;1.00;;;;;;;;;;5029571;28;20077;-76
2021/09/19 07:51:50;;;;;;;3.13;1.00;;;;;;;;;;5015092;28;20045;-76
2021/09/19 07:54:18;;;;;;;1.10;1.10;;;;;;;;;;5028046;28;20053;-76
2021/09/19 07:56:45;;;;;;;1.02;1.00;;;;;;;;;;5061859;28;20041;-76
2021/09/19 07:59:12;;;;;;;1.13;1.00;;;;;;;;;;5030803;28;20464;-76
2021/09/19 08:01:39;;;;;;;1.00;0.90;;;;;;;;;;5052922;28;20133;-76
2021/09/19 08:04:06;;;;;;;3.42;1.10;;;;;;;;;;5026628;28;20176;-76
2021/09/19 08:06:33;;;;;;;1.50;1.40;;;;;;;;;;5030105;28;20047;-76
2021/09/19 08:09:00;;;;;;;3.72;1.00;;;;;;;;;;5028106;28;20133;-76
2021/09/19 08:11:26;;;;;;;0.93;0.93;;;;;;;;;;5035358;28;20049;-76
2021/09/19 08:13:56;;;;;;;1.70;1.05;;;;;;;;;;5024895;28;20516;-76
2021/09/19 08:16:23;;;;;;;1.20;1.10;;;;;;;;;;5030892;28;20482;-76
2021/09/19 08:18:50;;;;;;;1.00;1.00;;;;;;;;;;5027589;28;20046;-76
2021/09/19 08:21:16;;;;;;;0.90;0.90;;;;;;;;;;5059952;28;20581;-76
2021/09/19 08:23:43;;;;;;;1.00;1.00;;;;;;;;;;5029654;28;20069;-76
2021/09/19 08:26:10;;;;;;;1.00;1.00;;;;;;;;;;5027296;28;20045;-76
2021/09/19 08:28:37;;;;;;;3.58;0.90;;;;;;;;;;5030173;28;20132;-76
2021/09/19 08:31:03;;;;;;;0.98;0.98;;;;;;;;;;5039773;28;20104;-76
2021/09/19 08:33:30;;;;;;;1.25;1.00;;;;;;;;;;5033244;28;20029;-76
2021/09/19 08:35:57;;;;;;;2.28;1.45;;;;;;;;;;4999172;28;20046;-76
2021/09/19 08:38:24;;;;;;;1.17;1.10;;;;;;;;;;5022965;28;20140;-76
2021/09/19 08:40:51;;;;;;;2.25;1.98;;;;;;;;;;5030239;28;20068;-76
2021/09/19 08:43:18;;;;;;;2.38;1.10;;;;;;;;;;5031548;28;20123;-76
2021/09/19 08:45:48;;;;;;;1.13;1.02;;;;;;;;;;5028716;28;20091;-76
2021/09/19 08:48:16;;;;;;;1.45;1.17;;;;;;;;;;5045904;28;20041;-76
2021/09/19 08:50:43;;;;;;;1.98;1.20;;;;;;;;;;5027825;28;20072;-76
2021/09/19 08:53:10;;;;;;;1.10;1.10;;;;;;;;;;5030262;28;20034;-76
2021/09/19 08:55:37;;;;;;;1.88;1.52;;;;;;;;;;5028435;28;20422;-76
2021/09/19 08:58:04;;;;;;;1.42;1.35;;;;;;;;;;5028551;28;20048;-76
2021/09/19 09:00:50;;;;;;;1.58;1.13;;;;;;;;;;5030709;28;20148;-76
2021/09/19 09:03:19;;;;;;;1.25;1.00;;;;;;;;;;5030308;28;20041;-76
2021/09/19 09:05:54;;;;;;;1.52;1.42;;;;;;;;;;5026517;28;20419;-76
2021/09/19 09:08:21;;;;;;;1.13;1.08;;;;;;;;;;5024809;28;20065;-76
2021/09/19 09:10:49;;;;;;;2.40;1.20;;;;;;;;;;5025211;28;20749;-76
2021/09/19 09:13:17;;;;;;;1.33;0.95;;;;;;;;;;5045237;28;20073;-76
2021/09/19 09:15:49;;;;;;;2.15;1.00;;;;;;;;;;5029374;28;20474;-76
2021/09/19 09:18:32;;;;;;;0.90;0.90;;;;;;;;;;5017637;28;20509;-76
2021/09/19 09:21:00;;;;;;;3.05;0.82;;;;;;;;;;5029941;28;20103;-76
2021/09/19 09:23:29;;;;;;;2.88;1.20;;;;;;;;;;5027371;28;20042;-76
2021/09/19 09:26:09;;;;;;;1.48;0.95;;;;;;;;;;5026170;28;20116;-76
2021/09/19 09:28:43;;;;;;;2.58;0.90;;;;;;;;;;5027001;28;20044;-76
2021/09/19 09:31:10;;;;;;;1.30;1.25;;;;;;;;;;5056338;28;20749;-76
2021/09/19 09:33:36;;;;;;;3.33;1.55;;;;;;;;;;5038645;28;20053;-76
2021/09/19 09:36:08;;;;;;;3.45;1.42;;;;;;;;;;5027851;28;20144;-76
2021/09/19 09:38:36;;;;;;;8.40;1.00;;;;;;;;;;5028860;28;20042;-76
2021/09/19 09:41:05;;;;;;;3.60;1.23;;;;;;;;;;5011420;28;20050;-76
2021/09/19 09:43:32;;;;;;;1.85;1.20;;;;;;;;;;5025500;28;20049;-76
2021/09/19 09:46:08;;;;;;;2.67;1.10;;;;;;;;;;5012231;28;20509;-76
2021/09/19 09:48:41;;;;;;;3.40;1.00;;;;;;;;;;5030117;28;20042;-76
2021/09/19 09:51:21;;;;;;;1.00;0.90;;;;;;;;;;5027107;28;20048;-76
2021/09/19 09:53:58;;;;;;;1.77;1.02;;;;;;;;;;5051063;28;20383;-76
2021/09/19 09:56:24;;;;;;;6.22;0.90;;;;;;;;;;5029030;28;20073;-76
2021/09/19 09:58:52;;;;;;;2.53;0.90;;;;;;;;;;5059772;28;20045;-80
2021/09/19 10:01:20;;;;;;;1.10;1.00;;;;;;;;;;5026647;28;20159;-80
2021/09/19 10:03:47;;;;;;;1.67;1.05;;;;;;;;;;5026194;28;20045;-80
2021/09/19 10:06:14;;;;;;;2.35;1.00;;;;;;;;;;5027399;28;20068;-80
2021/09/19 10:08:49;;;;;;;3.40;1.00;;;;;;;;;;5021677;28;20375;-80
2021/09/19 10:11:16;;;;;;;1.00;1.00;;;;;;;;;;5028054;28;20050;-80
2021/09/19 10:13:46;;;;;;;4.18;1.20;;;;;;;;;;5011371;28;20103;-80
2021/09/19 10:16:15;;;;;;;1.00;1.00;;;;;;;;;;5057974;28;20120;-80
2021/09/19 10:18:45;;;;;;;4.57;1.20;;;;;;;;;;5060087;28;21668;-80
2021/09/19 10:21:13;;;;;;;1.73;1.05;;;;;;;;;;5028367;28;20129;-80
2021/09/19 10:23:41;;;;;;;3.25;1.02;;;;;;;;;;5029380;28;20142;-80
2021/09/19 10:26:08;;;;;;;2.72;1.10;;;;;;;;;;5028238;28;20041;-80
2021/09/19 10:28:42;;;;;;;1.13;0.90;;;;;;;;;;5026107;28;20490;-80
2021/09/19 10:31:09;;;;;;;2.47;0.90;;;;;;;;;;5029186;28;20094;-81
2021/09/19 10:33:41;;;;;;;3.70;0.98;;;;;;;;;;5025895;28;20040;-80
2021/09/19 10:36:19;;;;;;;1.75;0.90;;;;;;;;;;5028078;28;20215;-81
2021/09/19 10:38:46;;;;;;;0.85;0.85;;;;;;;;;;5044674;28;20033;-82
2021/09/19 10:41:17;;;;;;;3.80;0.90;;;;;;;;;;5028059;28;20069;-82
2021/09/19 10:43:54;;;;;;;1.00;1.00;;;;;;;;;;5030176;28;20034;-82
2021/09/19 10:46:36;;;;;;;0.80;0.80;;;;;;;;;;5029589;28;20042;-82
2021/09/19 10:49:21;;;;;;;2.13;0.90;;;;;;;;;;5027791;28;20086;-82
2021/09/19 10:51:59;;;;;;;1.45;0.80;;;;;;;;;;5026940;28;20037;-82
2021/09/19 10:54:41;;;;;;;0.70;0.70;;;;;;;;;;5034711;28;20045;-82
2021/09/19 10:57:17;;;;;;;0.95;0.95;;;;;;;;;;5044151;28;20083;-82
2021/09/19 11:00:03;;;;;;;1.80;1.00;;;;;;;;;;5029478;28;20053;-82
2021/09/19 11:02:30;;;;;;;1.80;0.90;;;;;;;;;;5032466;28;20622;-82
2021/09/19 11:05:16;;;;;;;3.70;0.90;;;;;;;;;;5049870;28;20041;-82
2021/09/19 11:07:43;;;;;;;2.13;1.00;;;;;;;;;;5051554;28;20497;-82
2021/09/19 11:10:12;;;;;;;1.85;0.80;;;;;;;;;;5031704;28;20053;-82
2021/09/19 11:12:43;;;;;;;2.15;0.80;;;;;;;;;;5060585;28;20128;-82
2021/09/19 11:15:17;;;;;;;1.35;0.80;;;;;;;;;;5025015;28;20449;-82
2021/09/19 11:17:45;;;;;;;1.52;0.90;;;;;;;;;;5047088;28;20080;-82
2021/09/19 11:20:12;;;;;;;0.70;0.70;;;;;;;;;;5037200;28;20480;-82
2021/09/19 11:22:43;;;;;;;0.70;0.70;;;;;;;;;;5018433;28;20591;-82
2021/09/19 11:25:10;;;;;;;0.90;0.70;;;;;;;;;;5062352;28;20053;-82
2021/09/19 11:27:38;;;;;;;3.47;1.08;;;;;;;;;;5032728;28;20045;-82
2021/09/19 11:30:06;;;;;;;3.75;0.82;;;;;;;;;;5036035;28;20073;-82
2021/09/19 11:32:35;;;;;;;6.63;0.77;;;;;;;;;;5038170;28;20279;-82
2021/09/19 11:35:02;;;;;;;2.28;0.70;;;;;;;;;;5066671;28;20541;-81
2021/09/19 11:37:29;;;;;;;0.60;0.60;;;;;;;;;;5032841;28;20448;-81
2021/09/19 11:39:57;;;;;;;1.25;0.90;;;;;;;;;;5021668;28;20033;-81
2021/09/19 11:42:28;;;;;;;0.80;0.80;;;;;;;;;;5033278;28;20049;-81
2021/09/19 11:44:55;;;;;;;0.80;0.80;;;;;;;;;;5066695;28;20112;-81
2021/09/19 11:47:23;;;;;;;1.67;0.70;;;;;;;;;;5027616;28;20132;-81
2021/09/19 11:49:52;;;;;;;1.75;1.10;;;;;;;;;;5026372;28;20045;-81
2021/09/19 11:52:20;;;;;;;0.90;0.73;;;;;;;;;;5031914;28;20084;-81
2021/09/19 11:54:47;;;;;;;1.35;1.35;;;;;;;;;;5030720;28;20045;-81
2021/09/19 11:57:14;;;;;;;2.08;1.23;;;;;;;;;;5030503;28;20049;-81
2021/09/19 11:59:45;;;;;;;1.05;0.70;;;;;;;;;;5044100;28;20081;-81
2021/09/19 12:02:13;;;;;;;0.70;0.70;;;;;;;;;;5030699;28;20087;-81
2021/09/19 12:04:44;;;;;;;0.60;0.60;;;;;;;;;;5063444;28;20042;-81
2021/09/19 12:07:11;;;;;;;0.70;0.60;;;;;;;;;;5052145;28;20077;-81
2021/09/19 12:09:48;;;;;;;1.27;0.60;;;;;;;;;;5023229;28;20281;-81
2021/09/19 12:12:15;;;;;;;1.58;0.60;;;;;;;;;;5052877;28;20371;-81
2021/09/19 12:14:46;;;;;;;0.60;0.60;;;;;;;;;;5030099;28;20116;-81
2021/09/19 12:17:13;;;;;;;0.50;0.50;;;;;;;;;;5031364;28;20491;-81
2021/09/19 12:19:41;;;;;;;0.52;0.52;;;;;;;;;;5030226;28;20033;-81
2021/09/19 12:22:14;;;;;;;0.75;0.75;;;;;;;;;;5032308;28;20498;-81
2021/09/19 12:24:41;;;;;;;;;;;;;;;;;;5031719;28;20033;-81
2021/09/19 12:27:09;;;;;;;1.60;0.60;;;;;;;;;;5031935;28;19979;-81
2021/09/19 12:29:35;;;;;;;1.42;0.77;;;;;;;;;;5033290;28;20041;-81
2021/09/19 12:32:02;;;;;;;0.60;0.60;;;;;;;;;;5020850;28;20076;-81
2021/09/19 12:34:29;;;;;;;0.60;0.60;;;;;;;;;;5027727;28;20502;-81
2021/09/19 12:36:56;;;;;;;2.10;0.60;;;;;;;;;;5033572;28;20063;-81
2021/09/19 12:39:28;;;;;;;1.02;0.60;;;;;;;;;;5034154;28;20123;-81
2021/09/19 12:41:57;;;;;;;1.88;0.80;;;;;;;;;;5030619;28;20111;-81
2021/09/19 12:44:28;;;;;;;0.93;0.63;;;;;;;;;;5045289;28;20041;-82
2021/09/19 12:46:59;;;;;;;0.95;0.60;;;;;;;;;;5029199;28;20065;-81
2021/09/19 12:49:28;;;;;;;0.68;0.60;;;;;;;;;;5063393;28;20064;-81
2021/09/19 12:52:04;;;;;;;0.80;0.70;;;;;;;;;;5031918;28;20077;-81
2021/09/19 12:54:31;;;;;;;0.60;0.60;;;;;;;;;;5045508;28;20425;-81
2021/09/19 12:56:58;;;;;;;8.88;0.70;;;;;;;;;;5029849;28;20065;-81
2021/09/19 12:59:24;;;;;;;0.60;0.60;;;;;;;;;;5031400;28;20132;-81
2021/09/19 13:01:51;;;;;;;2.28;0.70;;;;;;;;;;5064571;28;20030;-81
2021/09/19 13:04:19;;;;;;;0.65;0.65;;;;;;;;;;5034611;28;20039;-81
2021/09/19 13:06:46;;;;;;;1.38;0.70;;;;;;;;;;5061272;28;20600;-81
2021/09/19 13:09:13;;;;;;;0.60;0.60;;;;;;;;;;5048191;28;20037;-80
2021/09/19 13:11:40;;;;;;;1.98;0.60;;;;;;;;;;5048416;28;20498;-80
2021/09/19 13:14:06;;;;;;;1.90;0.60;;;;;;;;;;5062397;28;20487;-80
2021/09/19 13:16:34;;;;;;;1.80;0.60;;;;;;;;;;5031569;28;20049;-80
2021/09/19 13:19:01;;;;;;;0.60;0.60;;;;;;;;;;5029804;28;20042;-80
2021/09/19 13:21:28;;;;;;;2.33;1.23;;;;;;;;;;5030768;28;20083;-80
2021/09/19 13:23:55;;;;;;;0.70;0.60;;;;;;;;;;5045454;28;20037;-80
2021/09/19 13:26:22;;;;;;;0.75;0.75;;;;;;;;;;5059571;28;20061;-80
2021/09/19 13:28:49;;;;;;;0.60;0.60;;;;;;;;;;5024480;28;20566;-80
2021/09/19 13:31:15;;;;;;;2.03;0.50;;;;;;;;;;5026537;28;20095;-81
2021/09/19 13:33:42;;;;;;;1.48;0.68;;;;;;;;;;5031175;28;20103;-81
2021/09/19 13:36:09;;;;;;;1.83;0.65;;;;;;;;;;5029256;28;20486;-81
2021/09/19 13:38:36;;;;;;;0.52;0.52;;;;;;;;;;5030625;28;20095;-81
2021/09/19 13:41:02;;;;;;;0.68;0.50;;;;;;;;;;5027729;28;20034;-81
2021/09/19 13:43:29;;;;;;;0.60;0.60;;;;;;;;;;5028424;28;20041;-81
2021/09/19 13:45:55;;;;;;;0.50;0.50;;;;;;;;;;5026257;28;20038;-81
2021/09/19 13:48:22;;;;;;;0.50;0.50;;;;;;;;;;5027365;28;20088;-81
2021/09/19 13:50:49;;;;;;;0.75;0.75;;;;;;;;;;5027114;28;20108;-81
2021/09/19 13:53:16;;;;;;;0.50;0.50;;;;;;;;;;5062561;28;20461;-81
2021/09/19 13:55:45;;;;;;;0.73;0.68;;;;;;;;;;5010931;28;20053;-81
2021/09/19 13:58:12;;;;;;;0.52;0.52;;;;;;;;;;5021908;28;20072;-81
2021/09/19 14:00:39;;;;;;;1.08;0.60;;;;;;;;;;5025963;28;20060;-81
2021/09/19 14:03:06;;;;;;;4.57;0.60;;;;;;;;;;5030499;28;20444;-81
2021/09/19 14:05:35;;;;;;;0.52;0.52;;;;;;;;;;5031428;28;20080;-81
2021/09/19 14:08:02;;;;;;;0.50;0.50;;;;;;;;;;5029634;28;20042;-81
2021/09/19 14:10:29;;;;;;;0.60;0.60;;;;;;;;;;5025836;28;20057;-81
2021/09/19 14:12:56;;;;;;;1.75;0.40;;;;;;;;;;5010775;28;20119;-81
2021/09/19 14:15:23;;;;;;;0.95;0.40;;;;;;;;;;5021385;28;20115;-81
2021/09/19 14:17:51;;;;;;;1.17;0.40;;;;;;;;;;5029393;28;20436;-81
2021/09/19 14:20:18;;;;;;;3.95;0.50;;;;;;;;;;5028096;28;20042;-81
2021/09/19 14:22:46;;;;;;;5.43;0.70;;;;;;;;;;5030072;28;20524;-81
2021/09/19 14:25:13;;;;;;;4.38;1.23;;;;;;;;;;5018160;28;20096;-81
2021/09/19 14:27:41;;;;;;;0.88;0.75;;;;;;;;;;5023362;28;20037;-81
2021/09/19 14:30:09;;;;;;;1.75;0.60;;;;;;;;;;5029523;28;20083;-81
2021/09/19 14:32:35;;;;;;;0.82;0.60;;;;;;;;;;5031849;28;20041;-81
2021/09/19 14:35:02;;;;;;;0.93;0.60;;;;;;;;;;5033761;28;20061;-81
2021/09/19 14:37:31;;;;;;;2.47;0.70;;;;;;;;;;5049296;28;20080;-80
2021/09/19 14:39:59;;;;;;;0.88;0.70;;;;;;;;;;5032686;28;20083;-80
2021/09/19 14:42:25;;;;;;;1.95;0.70;;;;;;;;;;5029467;28;20081;-80
2021/09/19 14:44:52;;;;;;;1.00;0.70;;;;;;;;;;5034088;28;20549;-80
2021/09/19 14:47:19;;;;;;;0.60;0.60;;;;;;;;;;5064051;28;20049;-80